Terminal Aerodrome Forecast
Issued by NWS

Home | Current Version | Previous Version | Text Only | Print | Product List | Glossary Off
Versions: 1 2 3 4 5 6 7 8 9 10 11 12 13 14 15 16

865
FTUS43 KICT 132328
TAFHUT
TAF
KHUT 132328Z 1400/1424 33008KT P6SM SCT200
     FM140800 12005KT P6SM VCTS OVC090CB
     FM141200 16009KT P6SM VCTS OVC080CB
     FM141600 18013G21KT P6SM VCSH BKN120
     FM142200 25016G24KT P6SM -SHRA VCTS BKN090CB=

USA.gov is the U.S. government's official web portal to all federal, state and local government web resources and services.